Search for airport 
image banner adimage banner adimage banner ad
image banner ad

2PS0 - Rotelle

Located in West Point, United States

ICAO - 2PS0, IATA -

Data provided by Airmate  

General information

Coordinates: N40°11'52" W75°17'57"
Elevation is 340 feet MSL.
Magnetic variation is -11° East
View others Airports in Pennsylvania

Operational data

Special qualification required
Current time UTC:
Current local time:
Weather at : KLOM - Wings Field ( 7 km )
METAR: KLOM 292155Z AUTO 20006KT 7SM -RA SCT029 SCT049 OVC090 24/23 A2978 RMK AO2 T02430228
View NOTAMs / SUP AIP / TFR affecting this airport [VIEW]
Communications frequencies: [VIEW]

Runways:

Airport contact information

Address: West Point United States

Satellite view of 2PS0